Terminal Aerodrome Forecast
Issued by NWS

Home | Current Version | Previous Version | Text Only | Print | Product List | Glossary On
Versions: 1 2 3 4 5 6 7 8 9 10 11 12 13 14 15 16 17 18 19 20 21 22 23 24 25 26 27 28 29 30 31 32
000
FTUS41 KBOX 260520
TAFBED
TAF
KBED 260520Z 2606/2706 06003KT P6SM VCSH BKN060
     FM261100 07004KT P6SM VCSH OVC030
     FM262200 12005KT 3SM -DZ BR VCSH OVC008
     FM262300 15004KT 6SM -DZ BR VCSH OVC008
     FM270200 21005KT 3SM -DZ BR VCSH OVC005
     FM270500 25006KT 5SM -DZ BR OVC008=

USA.gov is the U.S. government's official web portal to all federal, state and local government web resources and services.